Tiempo atmosférico en la estación meteorológica de Benavente, Zamora (715 m.)



Fecha
DESCASC
Temp. máxima en grados centígrados (hora)
DESCASC
Temp. mínima en grados centígrados (hora)
DESCASC
Temp. media en grados centígrados
DESCASC
Racha de viento máxima en m/sg (hora)
DESCASC
Velocidad máxima media en intervalos de 10 minutos(hora)
DESCASC
Precipitaciones diarias en mm
DESCASC
Precipitaciones de 00:00 a 06:00 en mm
DESCASC
Precipitaciones de 06:00 a 12:00 en mm
DESCASC
Precipitaciones de 12:00 a 18:00 en mm
DESCASC
Precipitaciones de 18:00 a 24:00 en mm
DESCASC
23-05-2018 25.8 (16:50) 12.9 (06:40) 19.3 10.56 (20:30) 5.28 (20:00) 1.8 0 0 0 1.8
22-05-2018 26.3 (17:20) 10.7 (07:10) 18.5 5.83 (18:50) 3.33 (02:00) 0 0 0 0 0
21-05-2018 24 (14:50) 8.4 (06:50) 16.2 8.61 (15:00) 4.44 (18:30) 0 0 0 0 0
20-05-2018 24.1 (18:40) 9.8 (00:00) 17 8.33 (10:40) 4.17 (10:20) 0 0 0 0 0
19-05-2018 24.6 (18:10) 9.5 (07:10) 17.1 8.89 (22:50) 4.44 (22:50) 0 0 0 0 0
18-05-2018 22.5 (17:00) 10.6 (00:00) 16.6 10 (19:00) 4.44 (13:10) 0 0 0 0 0
17-05-2018 23.1 (15:30) 9 (00:00) 16.1 13.89 (18:00) 7.5 (18:10) 1.2 0 0 0 1.2
16-05-2018 22.9 (16:50) 4.5 (00:00) 13.7 8.89 (15:00) 4.44 (13:20) 0 0 0 0 0
15-05-2018 22.1 (18:30) 2.8 (00:00) 12.5 9.17 (21:00) 4.17 (23:10) 0 0 0 0 0
14-05-2018 19.1 (17:30) 9.3 (00:00) 14.2 10.83 (13:20) 5.28 (13:20) 0 0 0 0 0
13-05-2018 15.9 (14:40) 3.7 (00:00) 9.8 11.39 (14:20) 5.28 (15:30) 0 0 0 0 0
12-05-2018 16.3 (16:40) 6.5 (00:00) 11.4 13.89 (14:40) 6.67 (18:50) 0 0 0 0 0
11-05-2018 22 (18:10) 5.2 (06:30) 13.6 12.5 (14:50) 5.83 (14:50) 0 0 0 0 0
10-05-2018 19.3 (17:20) 5.9 (00:00) 12.6 9.17 (16:30) 3.89 (17:30) 0 0 0 0 0
09-05-2018 23.9 (17:00) 7.7 (00:00) 15.8 12.78 (22:30) 5.83 (21:30) 0 0 0 0 0
08-05-2018 26 (15:50) 11.3 (00:00) 18.7 10.56 (17:20) 5 (17:20) 1.6 0 0 0 1.6
07-05-2018 26.7 (18:10) 9.4 (00:00) 18.1 6.67 (14:30) 3.06 (23:00) 0 0 0 0 0
06-05-2018 24.7 (17:30) 8.7 (07:10) 16.7 6.11 (16:20) 3.33 (09:30) 0 0 0 0 0
05-05-2018 21.6 (18:10) 4.3 (00:00) 13 12.5 (14:30) 5.28 (11:20) 0 0 0 0 0
04-05-2018 16.5 (17:30) 1.9 (00:00) 9.2 11.11 (16:40) 6.11 (16:40) 0 0 0 0 0
03-05-2018 17.6 (18:00) 5.1 (00:00) 11.4 9.72 (19:20) 5.56 (19:30) 0 0 0 0 0
02-05-2018 16.3 (15:10) 6.3 (00:00) 11.3 7.78 (23:59) 4.44 (23:20) 0 0 0 0 0
01-05-2018 15 (17:40) 1.3 (05:20) 8.1 8.33 (18:20) 3.89 (18:30) 0 0 0 0 0
30-04-2018 10.7 (14:50) 1.6 (00:00) 6.1 9.72 (16:00) 4.72 (16:10) 1 0 0 1 0
29-04-2018 12.2 (14:30) 4.2 (00:00) 8.2 17.5 (15:20) 7.22 (15:20) 1 0 1 0 0
28-04-2018 15.1 (17:50) 6.6 (00:00) 10.9 10.83 (17:40) 5.28 (17:40) 0.6 0 0 0.6 0

Gráficas

Temp. máximas Temp. mínimas Temp. medias Precipitaciones Rachas de viento máximas Velocidades máximas media en intervalos de 10 minutos

Datos horarios

Fecha y hora oficial Temperatura (ºC) Velocidad del viento (km/h) Dirección del viento Racha (km/h) Dirección de racha Precipitación (mm) Presión (hPa) Tendencia (hPa) Humedad (%)
2018-05-27 23:00:00 16.2 8 Noroeste 21 Noroeste 0 933 1.8 67
2018-05-27 22:00:00 17.1 10 Noroeste 18 Noroeste 0 932.1 1.3 66
2018-05-27 21:00:00 18.5 8 Norte 24 Noroeste 0 931.8 0.5 56
2018-05-27 20:00:00 19.7 11 Norte 23 Norte 0 931.2 0.1 46
2018-05-27 19:00:00 21 13 Norte 25 Norte 0 930.8 -0.3 44
2018-05-27 18:00:00 19.3 13 Norte 36 Noroeste 0 931.3 -0.4 58
2018-05-27 17:00:00 19.9 19 Noroeste 40 Noroeste 0 931.1 -1.1 56
2018-05-27 16:00:00 22.6 7 Sur 19 Sudoeste 0 931.1 -1.6 40
2018-05-27 15:00:00 21.3 6 Sudoeste 18 Sudoeste 0 931.7 -1.4 43
2018-05-27 14:00:00 20.3 8 Sudoeste 18 Oeste 0 932.2 -1 48
2018-05-27 13:00:00 19.8 7 Oeste 17 Noroeste 0 932.7 -0.5 52
2018-05-27 12:00:00 18.1 5 Oeste 13 Sudoeste 0 933.1 0.5 63
2018-05-27 11:00:00 15.8 4 Oeste 10 Noroeste 0 933.2 0.9 75
2018-05-27 10:00:00 13.9 3 Noroeste 8 Noroeste 0 933.2 1 84
2018-05-27 09:00:00 12.2 5 Noroeste 10 Noroeste 0 932.6 0.7 89
2018-05-27 08:00:00 11.5 3 Sudoeste 5 Sudoeste 0 932.3 0.2 90
2018-05-27 07:00:00 11.2 0 Calma 8 Oeste 0 932.2 0.2 91
2018-05-27 06:00:00 10.9 2 Norte 4 Noroeste 0 931.9 -0.2 92
2018-05-27 05:00:00 10.5 2 Este 8 Nordeste 0 932.1 -0.1 91
2018-05-27 04:00:00 10.1 3 Norte 7 Norte 0 932 -0.1 91
2018-05-27 03:00:00 10.6 4 Nordeste 8 Este 0 932.1 -0.2 90
2018-05-27 02:00:00 11.5 0 Calma 5 Sudoeste 0 932.2 0 88
2018-05-27 01:00:00 12.5 3 Oeste 6 Oeste 0 932.1 0.6 87
2018-05-27 00:00:00 12 0 Calma 5 Sudeste 0 932.3 0.8 88
2018-05-26 23:00:00 13.1 0 Calma 14 Noroeste 0 932.2 1.3 84
2018-05-26 22:00:00 14.2 8 Noroeste 18 Noroeste 0 931.5 1.1 80
2018-05-26 21:00:00 15.6 6 Noroeste 21 Noroeste 0 931.5 1.2 77
2018-05-26 20:00:00 16.8 4 Nordeste 14 Nordeste 0.2 930.9 0.6 72
2018-05-26 19:00:00 17.7 9 Norte 27 Nordeste 1.4 930.4 0 67
2018-05-26 18:00:00 21.3 4 Noroeste 19 Norte 0 930.3 -0.4 38
2018-05-26 17:00:00 20.5 8 Oeste 19 Noroeste 0 930.3 -0.2 42
2018-05-26 16:00:00 18.2 7 Norte 17 Noroeste 0 930.4 -0.5 52
2018-05-26 15:00:00 18.2 7 Noroeste 17 Noroeste 0 930.7 -0.2 53
2018-05-26 14:00:00 18.7 7 Sur 18 Sur 0 930.5 -0.5 51
2018-05-26 13:00:00 16.9 4 Sur 10 Sur 0 930.9 -0.1 63
2018-05-26 12:00:00 15.7 3 Noroeste 12 Oeste 0 930.9 0.1 67
2018-05-26 11:00:00 14.6 5 Oeste 10 Oeste 0 931 0.3 73
2018-05-26 10:00:00 13.9 4 Oeste 11 Oeste 0 931 0.6 78
2018-05-26 09:00:00 12.1 7 Oeste 14 Noroeste 0 930.8 0.6 85
2018-05-26 08:00:00 10.6 0 Calma 9 Oeste 0 930.7 0.4 91
2018-05-26 07:00:00 10.3 4 Sudoeste 10 Sudoeste 0 930.4 -0.2 91
2018-05-26 06:00:00 10.8 3 Noroeste 13 Oeste 0 930.2 -0.6 90
2018-05-26 05:00:00 11 6 Oeste 13 Noroeste 0 930.3 -1 90
2018-05-26 04:00:00 11.2 0 Calma 4 Sur 0 930.6 -0.8 91
2018-05-26 03:00:00 11.4 2 Nordeste 8 Noroeste 0 930.8 -0.8 91
2018-05-26 02:00:00 11.6 0 Calma 6 Nordeste 0 931.3 -0.1 91
2018-05-26 01:00:00 12.2 3 Norte 7 Oeste 0 931.4 0.5 90
2018-05-26 00:00:00 12.4 6 Oeste 14 Oeste 0 931.6 0.8 88
2018-05-25 23:00:00 12.9 7 Oeste 14 Oeste 0 931.4 1.3 87
2018-05-25 22:00:00 13.8 0 Calma 11 Sur 1 930.9 0.8 85
2018-05-25 21:00:00 14.2 3 Sudoeste 27 Sudeste 1.2 930.8 0.5 79
2018-05-25 20:00:00 16.7 10 Nordeste 22 Nordeste 0 930.1 -0.6 62
2018-05-25 19:00:00 17.2 13 Este 24 Este 0 930.1 -0.7 62
2018-05-25 18:00:00 16.8 10 Nordeste 19 Este 0 930.3 -0.6 61
2018-05-25 17:00:00 17.1 8 Sudeste 23 Sudeste 0 930.7 -0.6 59
2018-05-25 16:00:00 17 11 Sudeste 29 Sudeste 0 930.8 -0.9 58
2018-05-25 15:00:00 18 10 Sudeste 21 Este 0 930.9 -0.7 54
2018-05-25 14:00:00 15.9 10 Este 20 Nordeste 0 931.3 -0.2 73
2018-05-25 13:00:00 15.3 12 Sudeste 26 Este 0 931.7 0.9 71
2018-05-25 12:00:00 14.2 3 Sudeste 23 Sudeste 0.2 931.6 0.9 80
2018-05-25 11:00:00 14.6 6 Este 28 Este 0 931.5 1.1 83
2018-05-25 10:00:00 13.8 8 Este 21 Este 0 930.8 0.7 85
2018-05-25 09:00:00 13.2 10 Nordeste 25 Nordeste 0 930.7 0.9 84
2018-05-25 08:00:00 12.6 8 Nordeste 18 Nordeste 0 930.4 0.1 88
2018-05-25 07:00:00 12.4 5 Norte 10 Norte 0 930.1 -0.9 88
2018-05-25 06:00:00 12.5 8 Norte 15 Norte 0 929.8 -1.5 89
2018-05-25 05:00:00 13.2 8 Nordeste 23 Nordeste 0 930.3 -1.5 88
2018-05-25 04:00:00 13.5 11 Nordeste 26 Nordeste 0 931 -2.5 85
2018-05-25 03:00:00 13 8 Nordeste 24 Norte 0 931.3 0.2 91
2018-05-25 02:00:00 13.6 11 Norte 28 Noroeste 1.4 931.8 -0.4 87
2018-05-25 01:00:00 14.6 10 Sudoeste 24 Noroeste 0 933.5 3.1 83
2018-05-25 00:00:00 14.9 12 Noroeste 24 Oeste 0 931.1 0.8 83
2018-05-24 23:00:00 15.7 5 Norte 35 Sur 0.8 932.2 2.1 80
2018-05-24 22:00:00 17.9 9 Norte 21 Norte 0 930.4 -0.2 61
2018-05-24 21:00:00 18.7 10 Norte 26 Norte 0 930.3 -0.8 56
2018-05-24 20:00:00 19.1 15 Norte 30 Norte 0 930.1 -2 55
2018-05-24 19:00:00 19.4 14 Norte 24 Norte 0 930.6 -1.9 57
2018-05-24 18:00:00 19.1 14 Norte 23 Norte 0 931.1 -2.5 65
2018-05-24 17:00:00 18 5 Noroeste 17 Oeste 0 932.1 -1.7 69
2018-05-24 16:00:00 17.5 10 Oeste 25 Noroeste 0.2 932.5 -1.1 79
2018-05-24 15:00:00 18.8 11 Sudoeste 26 Sudoeste 0 933.6 -0.4 66
2018-05-24 14:00:00 20 4 Sudoeste 17 Este 0 933.8 -0.3 58
2018-05-24 13:00:00 19 9 Nordeste 15 Nordeste 0 933.6 -0.5 62
2018-05-24 12:00:00 18.3 7 Este 17 Nordeste 0 934 -0.3 68
2018-05-24 11:00:00 16.6 7 Nordeste 19 Nordeste 0 934.1 -0.4 73
2018-05-24 10:00:00 15.7 12 Norte 19 Norte 0 934.1 0.1 74
2018-05-24 09:00:00 12.9 7 Norte 13 Norte 0 934.3 0.3 87
2018-05-24 08:00:00 11.8 6 Nordeste 12 Nordeste 0 934.5 0.1 88
2018-05-24 07:00:00 10.3 4 Norte 8 Norte 0 934 -0.6 91
2018-05-24 06:00:00 10.8 4 Nordeste 8 Nordeste 0 934 -0.8 90
2018-05-24 05:00:00 11.1 4 Norte 10 Norte 0 934.4 -0.3 89
2018-05-24 04:00:00 11.9 6 Norte 14 Norte 0 934.6 -0.4 89
2018-05-24 03:00:00 12 6 Noroeste 11 Noroeste 0 934.8 -0.2 89
2018-05-24 02:00:00 12.7 3 Nordeste 11 Norte 0 934.7 0.1 88
2018-05-24 01:00:00 13.4 7 Norte 12 Norte 0 935 1.2 87
2018-05-24 00:00:00 13.8 6 Nordeste 14 Nordeste 0 935 1.6 87
2018-05-23 23:00:00 14.3 9 Nordeste 26 Nordeste 0 934.6 2.6 86
2018-05-23 22:00:00 15.4 13 Nordeste 28 Este 1.8 933.8 2 85
2018-05-23 21:00:00 19.8 9 Este 38 Nordeste 0 933.4 1.4 54
2018-05-23 20:00:00 21.3 19 Nordeste 30 Nordeste 0 932 -0.2 45
2018-05-23 19:00:00 24.9 9 Sudoeste 22 Sudoeste 0 931.8 -0.7 30
2018-05-23 18:00:00 24.6 12 Sudoeste 26 Sudoeste 0 932 -1.2 31
2018-05-23 17:00:00 25.8 7 Sudoeste 24 Sudoeste 0 932.2 -1.8 26
2018-05-23 16:00:00 25.2 11 Sudoeste 34 Sur 0 932.5 -2 31
2018-05-23 15:00:00 24.3 7 Sudoeste 22 Sudoeste 0 933.2 -1.7 33
2018-05-23 14:00:00 23.3 6 Noroeste 15 Sur 0 934 -0.8 37
2018-05-23 13:00:00 22.1 5 Norte 15 Norte 0 934.5 -0.3 42
2018-05-23 12:00:00 20.1 5 Norte 19 Este 0 934.9 0.3 48
2018-05-23 11:00:00 18.2 6 Nordeste 17 Nordeste 0 934.8 0.4 52
2018-05-23 10:00:00 16.2 5 Norte 15 Nordeste 0 934.8 0.8 58
2018-05-23 09:00:00 15.5 7 Norte 13 Nordeste 0 934.6 0.9 60
2018-05-23 08:00:00 13.9 5 Norte 14 Norte 0 934.4 0.8 68
2018-05-23 07:00:00 13.2 7 Norte 11 Norte 0 934 0.4 75
2018-05-23 06:00:00 14 4 Norte 14 Nordeste 0 933.7 -0.1 71
2018-05-23 05:00:00 15 5 Nordeste 12 Nordeste 0 933.6 -0.2 63
2018-05-23 04:00:00 15.4 5 Nordeste 15 Nordeste 0 933.6 0.1 64
2018-05-23 03:00:00 16 7 Este 16 Este 0 933.8 0.6 68
2018-05-23 02:00:00 17.6 6 Nordeste 15 Nordeste 0 933.8 0.7 57
2018-05-23 01:00:00 19.2 6 Norte 17 Oeste 0 933.5 1.2 52
2018-05-23 00:00:00 20.5 8 Oeste 19 Oeste 0 933.2 1.3 45
2018-05-22 23:00:00 20 4 Oeste 13 Sudoeste 0 933.1 1.6 47
2018-05-22 22:00:00 19.6 4 Norte 8 Noroeste 0 932.3 1.1 49
2018-05-22 21:00:00 22.7 4 Noroeste 19 Norte 0 931.9 0.9 37
2018-05-22 20:00:00 25.4 8 Noroeste 17 Oeste 0 931.5 0.4 28
2018-05-22 19:00:00 25.5 10 Noroeste 21 Oeste 0 931.2 -0.3 28
2018-05-22 18:00:00 25.8 6 Sudoeste 20 Sur 0 931 -0.9 24
2018-05-22 17:00:00 25.4 3 Norte 15 Sudoeste 0 931.1 -1.2 25
2018-05-22 16:00:00 25.3 4 Sudeste 18 Este 0 931.5 -1.1 27
2018-05-22 15:00:00 23.9 4 Noroeste 15 Este 0 931.9 -0.8 32
2018-05-22 14:00:00 23.4 4 Este 19 Este 0 932.3 -0.2 38
2018-05-22 13:00:00 21.5 5 Este 15 Nordeste 0 932.6 0.3 44
2018-05-22 12:00:00 20 5 Este 17 Este 0 932.7 0.6 53
2018-05-22 11:00:00 18.4 7 Nordeste 15 Nordeste 0 932.5 0.6 60
2018-05-22 10:00:00 16.3 8 Nordeste 16 Nordeste 0 932.3 1.2 67
2018-05-22 09:00:00 14.6 8 Nordeste 15 Nordeste 0 932.1 1.4 74
2018-05-22 08:00:00 12.8 5 Norte 9 Norte 0 931.9 1.1 81
2018-05-22 07:00:00 10.8 3 Norte 9 Nordeste 0 931.1 0.4 86
2018-05-22 06:00:00 11.4 4 Norte 13 Nordeste 0 930.7 0.1 83
2018-05-22 05:00:00 12.3 5 Norte 10 Nordeste 0 930.8 0.3 81
2018-05-22 04:00:00 13 5 Norte 14 Nordeste 0 930.7 0.1 79
2018-05-22 03:00:00 13.5 6 Norte 17 Nordeste 0 930.6 0.1 76
2018-05-22 02:00:00 14.7 12 Nordeste 18 Nordeste 0 930.5 0.7 70
2018-05-22 01:00:00 15.8 10 Nordeste 18 Nordeste 0 930.6 1.3 65
2018-05-22 00:00:00 16.4 6 Norte 22 Norte 0 930.5 1.8 59
2018-05-21 23:00:00 17.8 8 Norte 14 Norte 0 929.8 1.4 52
2018-05-21 22:00:00 18.6 6 Norte 17 Norte 0 929.3 1.4 48
2018-05-21 21:00:00 20 7 Norte 27 Norte 0 928.7 1 44
2018-05-21 20:00:00 22.7 8 Norte 22 Noroeste 0 928.4 0.4 33
2018-05-21 19:00:00 23 8 Norte 30 Nordeste 0 927.9 -0.3 31
2018-05-21 18:00:00 23 3 Noroeste 20 Oeste 0 927.7 -0.5 25
2018-05-21 17:00:00 22.7 8 Oeste 26 Oeste 0 928 -0.7 27
2018-05-21 16:00:00 21.8 12 Sudoeste 29 Sudoeste 0 928.2 -1.1 32
2018-05-21 15:00:00 23.9 13 Sudoeste 31 Sudoeste 0 928.2 -1.4 28
2018-05-21 14:00:00 22.4 12 Sudoeste 23 Sur 0 928.7 -1 32
2018-05-21 13:00:00 21.2 8 Sudoeste 19 Sudoeste 0 929.3 -0.6 41
2018-05-21 12:00:00 19.7 6 Oeste 16 Oeste 0 929.6 -0.2 44
2018-05-21 11:00:00 17.2 5 Sudoeste 12 Sur 0 929.7 -0.1 53
2018-05-21 10:00:00 15.1 3 Noroeste 13 Noroeste 0 929.9 0.4 61
2018-05-21 09:00:00 12.7 4 Nordeste 17 Este 0 929.8 0.4 71
2018-05-21 08:00:00 10.4 3 Norte 7 Noroeste 0 929.8 0.4 80
2018-05-21 07:00:00 8.4 4 Norte 12 Noroeste 0 929.5 0 84
2018-05-21 06:00:00 8.6 4 Noroeste 9 Noroeste 0 929.4 -0.3 84
2018-05-21 05:00:00 9.3 5 Norte 9 Norte 0 929.4 -0.5 80
2018-05-21 04:00:00 9.8 2 Norte 7 Nordeste 0 929.5 -0.5 76
2018-05-21 03:00:00 12 3 Este 5 Nordeste 0 929.7 -0.4 69
2018-05-21 02:00:00 12.1 5 Norte 15 Nordeste 0 929.9 -0.2 67
2018-05-21 01:00:00 15.9 5 Oeste 15 Oeste 0 930 0.4 50
2018-05-21 00:00:00 16.6 5 Oeste 17 Sudoeste 0 930.1 1.1 50
2018-05-20 23:00:00 17.6 9 Sudoeste 18 Sudoeste 0 930.1 1 48
2018-05-20 22:00:00 18.9 5 Sur 12 Sur 0 929.6 0.3 29
2018-05-20 21:00:00 21.3 4 Este 13 Este 0 929 -0.6 23
2018-05-20 20:00:00 22.8 5 Sudeste 18 Este 0 929.1 -1 18
2018-05-20 19:00:00 23.7 6 Sur 19 Este 0 929.3 -1.5 16
2018-05-20 18:00:00 23.4 7 Este 26 Sudeste 0 929.6 -1.8 15
2018-05-20 17:00:00 22.9 13 Nordeste 26 Este 0 930.1 -2.2 15
2018-05-20 16:00:00 22.7 9 Este 24 Este 0 930.8 -2.2 18
2018-05-20 15:00:00 22.1 8 Nordeste 24 Este 0 931.4 -2 22
2018-05-20 14:00:00 20.8 10 Este 23 Nordeste 0 932.3 -1.6 27
2018-05-20 13:00:00 19.8 11 Nordeste 23 Nordeste 0 933 -1.3 29
2018-05-20 12:00:00 18.2 8 Este 20 Nordeste 0 933.4 -1 36
2018-05-20 11:00:00 16.4 10 Nordeste 30 Nordeste 0 933.9 -0.3 42
2018-05-20 10:00:00 14.4 8 Nordeste 16 Nordeste 0 934.3 0.4 49
2018-05-20 09:00:00 12.4 8 Nordeste 15 Norte 0 934.4 0.3 60
2018-05-20 08:00:00 10 7 Norte 17 Norte 0 934.2 0.1 76
2018-05-20 07:00:00 9.9 8 Norte 17 Norte 0 933.9 -0.6 76
2018-05-20 06:00:00 10.6 8 Norte 20 Nordeste 0 934.1 -0.7 68
2018-05-20 05:00:00 11.5 9 Norte 18 Nordeste 0 934.1 -1 73
2018-05-20 04:00:00 11.9 7 Nordeste 21 Este 0 934.5 -0.6 76
2018-05-20 03:00:00 13.2 9 Este 19 Este 0 934.8 0 72
2018-05-20 02:00:00 13.5 7 Nordeste 18 Nordeste 0 935.1 0.6 69
2018-05-20 01:00:00 15.2 4 Este 14 Nordeste 0 935.1 1.6 59
2018-05-20 00:00:00 16.3 8 Nordeste 25 Nordeste 0 934.8 1.7 58
2018-05-19 23:00:00 17.9 15 Nordeste 32 Nordeste 0 934.5 1.5 50
2018-05-19 22:00:00 18.3 6 Este 15 Este 0 933.5 0.4 49
2018-05-19 21:00:00 20.5 9 Este 22 Este 0 933.1 -0.4 40
2018-05-19 20:00:00 23.1 8 Este 21 Nordeste 0 933 -0.8 26
2018-05-19 19:00:00 24.1 6 Este 22 Nordeste 0 933.1 -1.4 23
2018-05-19 18:00:00 24.1 5 Nordeste 24 Este 0 933.5 -1.5 24
2018-05-19 17:00:00 24 4 Noroeste 22 Nordeste 0 933.8 -1.8 26
2018-05-19 16:00:00 23.1 6 Este 21 Este 0 934.5 -1.5 30
2018-05-19 15:00:00 22.8 5 Norte 22 Este 0 935 -1.3 32
2018-05-19 14:00:00 21.9 9 Este 23 Nordeste 0 935.6 -1.1 35
2018-05-19 13:00:00 20.5 7 Norte 26 Nordeste 0 936 -0.8 44
2018-05-19 12:00:00 19.2 6 Nordeste 19 Este 0 936.3 -0.5 50
2018-05-19 11:00:00 17 8 Nordeste 20 Nordeste 0 936.7 0.3 58
2018-05-19 10:00:00 15.1 8 Nordeste 19 Norte 0 936.8 0.7 64
2018-05-19 09:00:00 13.1 10 Nordeste 20 Nordeste 0 936.8 0.9 67
2018-05-19 08:00:00 11.3 7 Norte 14 Norte 0 936.4 0.5 72
2018-05-19 07:00:00 9.7 4 Norte 18 Norte 0 936.1 0.6 78
2018-05-19 06:00:00 10.3 8 Norte 18 Nordeste 0 935.9 0.1 77
2018-05-19 05:00:00 10.6 9 Norte 15 Norte 0 935.9 -0.1 77
2018-05-19 04:00:00 11.2 6 Norte 17 Nordeste 0 935.5 -0.5 78
2018-05-19 03:00:00 12.6 8 Nordeste 22 Este 0 935.8 -0.2 74
2018-05-19 02:00:00 12.7 6 Nordeste 20 Nordeste 0 936 0.4 78
2018-05-19 01:00:00 13.6 8 Nordeste 19 Este 0 936 1 72
2018-05-19 00:00:00 13 4 Norte 8 Nordeste 0 936 1.9 75
2018-05-18 23:00:00 14.9 2 Noroeste 9 Sudeste 0 935.6 1.8 67
2018-05-18 22:00:00 16.1 2 Este 11 Este 0 935 1.3 63
2018-05-18 21:00:00 18 5 Sudeste 20 Sudeste 0 934.1 0.9 55
2018-05-18 20:00:00 19.7 8 Sudeste 28 Sur 0 933.8 0.8 48
2018-05-18 19:00:00 18.4 14 Sur 36 Sur 0 933.7 0.3 55
2018-05-18 18:00:00 21.6 10 Este 32 Este 0 933.2 -0.7 39
2018-05-18 17:00:00 22.4 13 Este 30 Nordeste 0 933 -1.3 34
2018-05-18 16:00:00 21.5 13 Este 31 Este 0 933.4 -1.5 38
2018-05-18 15:00:00 21.2 12 Este 32 Sudeste 0 933.9 -1.1 38
2018-05-18 14:00:00 19.7 12 Este 31 Este 0 934.3 -0.7 46
2018-05-18 13:00:00 18.9 14 Este 30 Este 0 934.9 -0.2 52
2018-05-18 12:00:00 17.3 14 Este 31 Este 0 935 0.4 58
2018-05-18 11:00:00 14.4 15 Este 25 Este 0 935 0.6 69
2018-05-18 10:00:00 12.5 13 Este 30 Este 0 935.1 0.8 77
2018-05-18 09:00:00 12.5 11 Nordeste 25 Nordeste 0 934.6 0.5 77
2018-05-18 08:00:00 10.9 12 Nordeste 26 Nordeste 0 934.4 0.5 83
2018-05-18 07:00:00 10.9 8 Nordeste 19 Este 0 934.3 0.2 85
2018-05-18 06:00:00 11.4 6 Este 18 Este 0 934.1 -0.3 86
2018-05-18 05:00:00 11.5 5 Norte 10 Norte 0 933.9 -0.8 85
2018-05-18 04:00:00 10.8 5 Norte 12 Este 0 934.1 -0.9 85
2018-05-18 03:00:00 10.8 4 Nordeste 12 Nordeste 0 934.4 -0.2 84
2018-05-18 02:00:00 11.3 6 Norte 14 Norte 0 934.7 -0.4 80
2018-05-18 01:00:00 11.9 5 Norte 12 Norte 0 935 0.7 78
2018-05-18 00:00:00 12.6 4 Nordeste 18 Este 0 934.6 1.4 73
2018-05-17 23:00:00 13 8 Este 30 Este 0.4 935.1 2.7 73
2018-05-17 22:00:00 13.6 6 Este 21 Nordeste 0.2 934.3 0.6 76
2018-05-17 21:00:00 14.4 13 Nordeste 33 Norte 0 933.2 1 66
2018-05-17 20:00:00 14.5 18 Norte 40 Noroeste 0.6 932.4 0.8 61
2018-05-17 19:00:00 14.4 18 Norte 48 Noroeste 0 933.7 2.1 69
2018-05-17 18:00:00 19.1 22 Noroeste 50 Noroeste 0 932.2 0 34
2018-05-17 17:00:00 22.4 9 Nordeste 20 Este 0 931.6 -1.3 29
2018-05-17 16:00:00 21.8 10 Este 28 Nordeste 0 931.6 -1.8 30
2018-05-17 15:00:00 22.5 12 Este 31 Nordeste 0 932.2 -1.6 30
2018-05-17 14:00:00 21.7 13 Este 31 Este 0 932.9 -0.8 32
2018-05-17 13:00:00 19.6 10 Este 25 Este 0 933.4 -0.5 40
2018-05-17 12:00:00 18.6 13 Este 25 Sudeste 0 933.8 -0.2 43
2018-05-17 11:00:00 17.1 12 Nordeste 31 Nordeste 0 933.7 -0.4 49
2018-05-17 10:00:00 14.8 10 Nordeste 23 Este 0 933.9 0 56
2018-05-17 09:00:00 12.6 8 Norte 19 Norte 0 934 0.2 64
2018-05-17 08:00:00 10.5 7 Norte 15 Norte 0 934.1 0.2 71
2018-05-17 07:00:00 9 6 Norte 17 Norte 0 933.9 -0.3 75
2018-05-17 06:00:00 9.2 9 Norte 17 Norte 0 933.8 -0.6 75
2018-05-17 05:00:00 9.4 8 Norte 15 Norte 0 933.9 -0.8 75
2018-05-17 04:00:00 10.1 3 Noroeste 21 Nordeste 0 934.2 -0.5 74
2018-05-17 03:00:00 11 8 Norte 23 Nordeste 0 934.4 -0.3 73
2018-05-17 02:00:00 11.2 10 Nordeste 27 Nordeste 0 934.7 0.6 75
2018-05-17 01:00:00 12.6 12 Nordeste 24 Nordeste 0 934.7 1.3 70
2018-05-17 00:00:00 14 11 Nordeste 25 Nordeste 0 934.7 1.9 62
2018-05-16 23:00:00 15.7 12 Este 27 Nordeste 0 934.1 1.4 53
2018-05-16 22:00:00 17.4 10 Este 21 Este 0 933.4 0.5 45
2018-05-16 21:00:00 20.1 9 Este 19 Este 0 932.8 -0.2 36
2018-05-16 20:00:00 21.6 13 Este 26 Este 0 932.7 -0.6 30
2018-05-16 19:00:00 22 10 Este 28 Este 0 932.9 -1 29
2018-05-16 18:00:00 22.3 10 Este 31 Sudeste 0 933 -1.5 29
2018-05-16 17:00:00 22.6 12 Este 28 Este 0 933.3 -1.8 29
2018-05-16 16:00:00 22.2 10 Este 32 Este 0 933.9 -1.6 31
2018-05-16 15:00:00 20.9 16 Este 32 Este 0 934.5 -1.7 35
2018-05-16 14:00:00 19.9 13 Este 29 Este 0 935.1 -1.5 37
2018-05-16 13:00:00 18.3 15 Nordeste 30 Nordeste 0 935.5 -1.3 38
2018-05-16 12:00:00 16.5 11 Nordeste 23 Norte 0 936.2 -0.8 39
2018-05-16 11:00:00 13.8 9 Nordeste 20 Norte 0 936.6 -0.4 48
2018-05-16 10:00:00 11.4 6 Este 17 Este 0 936.8 0.1 58
2018-05-16 09:00:00 9.2 5 Este 14 Nordeste 0 937 0.2 63
2018-05-16 08:00:00 7.7 4 Norte 10 Nordeste 0 937 0 65
2018-05-16 07:00:00 4.6 5 Norte 12 Este 0 936.7 -0.6 73
2018-05-16 06:00:00 5.4 0 Calma 10 Nordeste 0 936.8 -0.8 66
2018-05-16 05:00:00 6 2 Norte 6 Norte 0 937 -0.5 62
2018-05-16 04:00:00 6.9 4 Norte 15 Este 0 937.3 -0.6 56
2018-05-16 03:00:00 7.9 4 Norte 14 Este 0 937.6 0 50
2018-05-16 02:00:00 9.8 8 Nordeste 19 Nordeste 0 937.5 0.6 38
2018-05-16 01:00:00 10.8 9 Nordeste 25 Este 0 937.9 1.7 42
2018-05-16 00:00:00 12.1 9 Nordeste 30 Este 0 937.6 2.1 40
2018-05-15 23:00:00 13.7 14 Este 30 Este 0 936.9 1.9 32
2018-05-15 22:00:00 15.3 13 Este 30 Este 0 936.2 1 37
2018-05-15 21:00:00 18.5 14 Este 33 Este 0 935.5 -0.1 36
2018-05-15 20:00:00 21.4 10 Este 22 Este 0 935 -1.1 29
2018-05-15 19:00:00 21.7 8 Este 27 Este 0 935.2 -1.7 27
2018-05-15 18:00:00 21.9 5 Nordeste 21 Norte 0 935.6 -1.8 27
2018-05-15 17:00:00 21 9 Este 25 Este 0 936.1 -1.9 28
2018-05-15 16:00:00 20.6 9 Este 29 Este 0 936.9 -1.8 25
2018-05-15 15:00:00 19.2 5 Oeste 18 Sudeste 0 937.4 -1.5 22
2018-05-15 14:00:00 18 5 Sur 13 Sudeste 0 938 -1.4 22
2018-05-15 13:00:00 16 4 Oeste 17 Nordeste 0 938.7 -1 26
2018-05-15 12:00:00 14.3 6 Norte 18 Nordeste 0 938.9 -0.9 27
2018-05-15 11:00:00 11.9 3 Norte 12 Nordeste 0 939.4 -0.7 45
2018-05-15 10:00:00 9.5 4 Este 13 Este 0 939.7 0 57
2018-05-15 09:00:00 7.6 5 Este 9 Este 0 939.8 0.1 65
2018-05-15 08:00:00 4.8 2 Nordeste 10 Noroeste 0 940.1 0.3 74
2018-05-15 07:00:00 2.8 5 Noroeste 9 Noroeste 0 939.7 0 82
2018-05-15 06:00:00 3.5 0 Calma 4 Sudeste 0 939.7 -0.1 78
2018-05-15 05:00:00 4.3 0 Calma 5 Sudeste 0 939.8 -0.1 75
2018-05-15 04:00:00 5.2 0 Calma 7 Nordeste 0 939.7 -0.3 73
2018-05-15 03:00:00 6.5 4 Nordeste 13 Nordeste 0 939.8 0.1 69
2018-05-15 02:00:00 7.2 4 Nordeste 12 Nordeste 0 939.9 0.7 66
2018-05-15 01:00:00 8.6 7 Este 20 Nordeste 0 940 1.9 59
2018-05-15 00:00:00 10.1 9 Este 19 Nordeste 0 939.7 2.2 53
2018-05-14 23:00:00 12 10 Nordeste 29 Nordeste 0 939.2 1.6 43
2018-05-14 22:00:00 13.6 10 Norte 23 Norte 0 938.1 0.7 39
2018-05-14 21:00:00 16.4 11 Norte 24 Nordeste 0 937.5 0 32
2018-05-14 20:00:00 17.8 12 Nordeste 27 Norte 0 937.6 0 29
2018-05-14 19:00:00 18.5 14 Nordeste 30 Nordeste 0 937.4 -0.4 28
2018-05-14 18:00:00 18.7 10 Norte 29 Norte 0 937.5 -0.3 28
2018-05-14 17:00:00 18.5 15 Nordeste 32 Nordeste 0 937.6 -0.2 28
2018-05-14 16:00:00 18.5 16 Nordeste 34 Nordeste 0 937.8 -0.1 30
2018-05-14 15:00:00 17.9 13 Nordeste 38 Norte 0 937.8 0 29
2018-05-14 14:00:00 17 14 Nordeste 39 Norte 0 937.8 0.4 37
2018-05-14 13:00:00 16.6 18 Nordeste 36 Nordeste 0 937.9 0.8 43
2018-05-14 12:00:00 14.4 9 Nordeste 30 Norte 0 937.8 0.6 59
2018-05-14 11:00:00 14 10 Norte 27 Noroeste 0 937.4 0.3 59
2018-05-14 10:00:00 12.8 8 Noroeste 18 Norte 0 937.1 0.3 64
2018-05-14 09:00:00 10.4 4 Sudoeste 12 Sudoeste 0 937.2 0.3 68
2018-05-14 08:00:00 9.5 5 Sudoeste 10 Sudoeste 0 937.1 0 72
2018-05-14 07:00:00 9.4 6 Sudoeste 17 Sudoeste 0 936.8 -0.7 71
2018-05-14 06:00:00 9.8 6 Oeste 19 Oeste 0 936.9 -1.2 68
2018-05-14 05:00:00 9.8 7 Oeste 18 Sudoeste 0 937.1 -1.4 68
2018-05-14 04:00:00 9.8 8 Oeste 17 Oeste 0 937.5 -1.6 67
2018-05-14 03:00:00 9.9 6 Oeste 12 Oeste 0 938.1 -0.9 67
2018-05-14 02:00:00 9.8 5 Sudoeste 10 Sudoeste 0 938.5 -0.6 66
2018-05-14 01:00:00 9.7 7 Oeste 12 Oeste 0 939.1 0.1 65
2018-05-11 20:00:00 20.9 15 Sudoeste 30 Sudoeste 0 932.2 -0.7 22
2018-05-11 19:00:00 21.3 14 Sudoeste 34 Oeste 0 932.3 -1.3 30
2018-05-11 18:00:00 21.7 13 Sudoeste 30 Sudoeste 0 932.4 -1.4 32
2018-05-11 17:00:00 21.1 11 Oeste 33 Sudoeste 0 932.9 -1.1 33
2018-05-11 16:00:00 20.5 17 Sudoeste 34 Sudoeste 0 933.6 -0.7 37
2018-05-11 15:00:00 20.7 17 Oeste 45 Sudoeste 0 933.8 -0.9 38
2018-05-11 14:00:00 20.6 13 Oeste 34 Sudoeste 0 934 -0.4 41
2018-05-11 13:00:00 18.6 10 Sur 21 Sudeste 0 934.3 -0.4 43
2018-05-11 12:00:00 15.6 5 Sur 14 Sur 0 934.7 0.1 48
2018-05-11 11:00:00 14.3 3 Norte 14 Este 0 934.4 0.1 51
2018-05-11 10:00:00 11.4 5 Norte 13 Norte 0 934.7 0.4 61
2018-05-11 09:00:00 9.8 4 Norte 12 Noroeste 0 934.6 0.6 69
2018-05-11 08:00:00 7.1 4 Norte 9 Nordeste 0 934.3 0 79
2018-05-11 07:00:00 5.3 3 Norte 7 Norte 0 934.3 -0.1 84
2018-05-11 06:00:00 5.7 3 Norte 5 Norte 0 934 -0.7 80
2018-05-11 05:00:00 6.2 3 Norte 5 Nordeste 0 934.3 -0.6 77
2018-05-11 04:00:00 6.6 3 Norte 9 Este 0 934.4 -1 75
2018-05-11 03:00:00 8.2 0 Calma 6 Noroeste 0 934.7 -0.6 70
2018-05-11 02:00:00 9.4 5 Nordeste 10 Nordeste 0 934.9 -0.5 63
2018-05-11 01:00:00 9.5 4 Nordeste 9 Nordeste 0 935.4 0.5 64
2018-05-11 00:00:00 10.8 4 Nordeste 9 Nordeste 0 935.3 0.6 58
2018-05-10 23:00:00 11.2 3 Nordeste 8 Nordeste 0 935.4 1.1 56
2018-05-10 22:00:00 13.4 4 Nordeste 11 Este 0 934.9 0.5 49
2018-05-10 21:00:00 16.4 5 Este 24 Este 0 934.7 0 37
2018-05-10 20:00:00 17.9 10 Este 26 Sudeste 0 934.3 -0.7 31
2018-05-10 19:00:00 18.8 11 Sudeste 26 Sudeste 0 934.4 -0.9 30
2018-05-10 18:00:00 18.7 12 Este 31 Este 0 934.7 -0.9 30
2018-05-10 17:00:00 18.6 14 Este 33 Sudeste 0 935 -1 31
2018-05-10 16:00:00 18.8 14 Este 26 Este 0 935.3 -0.9 37
2018-05-10 15:00:00 18 10 Este 27 Este 0 935.6 -0.9 39
2018-05-10 14:00:00 16.7 10 Este 21 Este 0 936 -0.3 41
2018-05-10 13:00:00 15.9 11 Este 27 Este 0 936.2 0.2 46
2018-05-10 12:00:00 14.6 12 Este 26 Este 0 936.5 0.7 50
2018-05-10 11:00:00 13.3 10 Nordeste 25 Este 0 936.3 0.9 56
2018-05-10 10:00:00 11.8 10 Este 22 Este 0 936 1.1 64
2018-05-10 09:00:00 10.1 8 Este 15 Este 0 935.8 1.3 69
2018-05-10 08:00:00 8 5 Norte 8 Norte 0 935.4 1.4 72
2018-05-10 07:00:00 6 3 Norte 6 Norte 0 934.9 1.5 76
2018-05-10 06:00:00 6.4 0 Calma 10 Nordeste 0 934.5 1.3 73
2018-05-10 05:00:00 8.1 6 Norte 18 Norte 0 934 1.4 63
2018-05-10 04:00:00 9.2 9 Norte 22 Norte 0 933.4 1 71
2018-05-10 03:00:00 10.6 12 Norte 22 Norte 0 933.2 1.3 66
2018-05-10 02:00:00 11.7 6 Norte 18 Norte 0 932.6 1.4 66
2018-05-10 01:00:00 12.8 9 Norte 27 Norte 0 932.4 2 60
2018-05-10 00:00:00 14.2 15 Norte 35 Norte 0 931.9 2.4 54
2018-05-09 23:00:00 15.3 21 Norte 46 Norte 0 931.2 1.9 49
2018-05-09 22:00:00 16.3 19 Norte 45 Norte 0 930.4 2 44
2018-05-09 21:00:00 17.8 14 Norte 40 Norte 0 929.5 1.1 47
2018-05-09 20:00:00 20.3 14 Noroeste 27 Noroeste 0 929.3 0.6 39
2018-05-09 19:00:00 22.7 8 Sudoeste 23 Sur 0 928.4 -0.7 35
2018-05-09 18:00:00 22.9 6 Sudoeste 24 Sur 0 928.4 -1.5 35
2018-05-09 17:00:00 23.8 6 Sudoeste 18 Sudoeste 0 928.7 -1.9 33
2018-05-09 16:00:00 22.6 5 Sur 23 Sudoeste 0 929.1 -2.2 36
2018-05-09 15:00:00 21.4 5 Sur 19 Sur 0 929.9 -1.8 40
2018-05-09 14:00:00 19.7 7 Sudoeste 15 Este 0 930.6 -1.4 44
2018-05-09 13:00:00 17.8 4 Sudeste 15 Este 0 931.3 -0.8 52
2018-05-09 12:00:00 16.2 3 Este 14 Sudeste 0 931.7 -0.5 59
2018-05-09 11:00:00 13.8 5 Este 15 Sudeste 0 932 0 66
2018-05-09 10:00:00 12.2 6 Este 14 Este 0 932.1 0.3 71
2018-05-09 09:00:00 10.7 8 Nordeste 18 Nordeste 0 932.2 0.4 77
2018-05-09 08:00:00 9.2 8 Nordeste 14 Nordeste 0 932 0.1 83
2018-05-09 07:00:00 7.9 4 Nordeste 8 Nordeste 0 931.8 -0.4 88
2018-05-09 06:00:00 8.1 4 Norte 6 Nordeste 0 931.8 -0.7 88
2018-05-09 05:00:00 9.2 3 Este 15 Este 0 931.9 -0.7 86
2018-05-09 04:00:00 9.7 3 Norte 11 Nordeste 0 932.2 -0.4 84
2018-05-09 03:00:00 10.1 4 Noroeste 12 Norte 0 932.5 -0.4 83
2018-05-09 02:00:00 11.1 6 Nordeste 13 Nordeste 0 932.6 0.3 80
2018-05-09 01:00:00 11.6 5 Nordeste 13 Nordeste 0 932.6 1 80
2018-05-09 00:00:00 12.9 6 Nordeste 19 Nordeste 0 932.9 1.3 75
2018-05-08 23:00:00 13.6 6 Nordeste 20 Sudeste 0 932.3 1.5 78
2018-05-08 22:00:00 15.2 6 Este 25 Este 0 931.6 1.1 75
2018-05-08 21:00:00 16.9 12 Nordeste 31 Nordeste 0 931.6 1.7 77
2018-05-08 20:00:00 17.4 11 Nordeste 25 Nordeste 0 930.8 0.8 77
2018-05-08 19:00:00 18.6 8 Este 23 Norte 1.6 930.5 0.5 73
2018-05-08 18:00:00 23.8 12 Sudoeste 38 Sudoeste 0 929.9 -0.8 34
2018-05-08 17:00:00 24.5 13 Sudoeste 27 Sur 0 930 -1.4 41
2018-05-08 16:00:00 25.3 4 Sudeste 24 Sudeste 0 930 -2 32
2018-05-08 15:00:00 25.1 7 Sur 18 Sur 0 930.7 -1.7 35
2018-05-08 14:00:00 22.9 5 Este 16 Sudeste 0 931.4 -1.2 42
2018-05-08 13:00:00 22.6 5 Sudeste 13 Sudeste 0 932 -0.5 45
2018-05-08 12:00:00 21 4 Sur 14 Nordeste 0 932.4 -0.1 50
2018-05-08 11:00:00 19.1 6 Este 12 Este 0 932.6 0.2 55
2018-05-08 10:00:00 17.1 4 Nordeste 10 Nordeste 0 932.5 0.5 64
2018-05-08 09:00:00 14.6 4 Norte 8 Norte 0 932.5 0.2 78
2018-05-08 08:00:00 12.9 4 Nordeste 14 Oeste 0 932.4 -0.2 84
2018-05-08 07:00:00 12.2 4 Oeste 11 Oeste 0 932 -0.4 87
2018-05-08 06:00:00 11.7 0 Calma 5 Noroeste 0 932.3 -0.4 86
2018-05-08 05:00:00 12.8 0 Calma 5 Nordeste 0 932.6 -0.5 82
2018-05-08 04:00:00 14 3 Nordeste 10 Nordeste 0 932.4 -1 78
2018-05-08 03:00:00 15.5 4 Norte 14 Noroeste 0 932.7 -0.9 74
2018-05-08 02:00:00 16.8 6 Noroeste 19 Oeste 0 933.1 -0.3 66
2018-05-08 01:00:00 17.2 9 Sudoeste 19 Sudoeste 0 933.4 1.3 66
2018-05-08 00:00:00 17.5 4 Sur 23 Sudeste 0 933.6 1.8 64
2018-05-07 23:00:00 19.2 11 Este 24 Este 0 933.4 2 56
2018-05-07 22:00:00 20 3 Nordeste 7 Norte 0 932.1 0.8 52
2018-05-07 21:00:00 21.3 5 Nordeste 23 Nordeste 0 931.8 0.4 46
2018-05-07 20:00:00 24 9 Norte 22 Norte 0 931.4 -0.4 36
2018-05-07 19:00:00 25.8 6 Este 17 Este 0 931.3 -1.3 24
2018-05-07 18:00:00 26.2 5 Noroeste 18 Este 0 931.4 -1.9 25
2018-05-07 17:00:00 25.6 7 Nordeste 22 Este 0 931.8 -2.2 25
2018-05-07 16:00:00 25.7 4 Nordeste 23 Este 0 932.6 -1.8 26
2018-05-07 15:00:00 24.8 5 Norte 24 Sudeste 0 933.3 -1.5 29
2018-05-07 14:00:00 23.7 6 Este 21 Este 0 934 -0.9 36
2018-05-07 13:00:00 22.5 5 Este 16 Nordeste 0 934.4 -0.7 45
2018-05-07 12:00:00 20.4 5 Nordeste 15 Norte 0 934.8 0 47
2018-05-07 11:00:00 18.3 6 Nordeste 15 Nordeste 0 934.9 0.3 53
2018-05-07 10:00:00 16.5 8 Norte 15 Norte 0 935.1 0.8 60
2018-05-07 09:00:00 14.2 6 Norte 11 Norte 0 934.8 0.5 70
2018-05-07 08:00:00 10.4 4 Norte 10 Norte 0 934.6 0.4 85
2018-05-07 07:00:00 10.1 2 Nordeste 13 Norte 0 934.3 0.2 82
2018-05-07 06:00:00 11.3 6 Norte 13 Noroeste 0 934.3 0.3 79
2018-05-07 05:00:00 12 7 Norte 14 Norte 0 934.2 0 79
2018-05-07 04:00:00 12.8 7 Norte 15 Nordeste 0 934.1 -0.2 74
2018-05-07 03:00:00 13.1 8 Norte 14 Norte 0 934 -0.1 71
2018-05-07 02:00:00 13.1 5 Norte 15 Nordeste 0 934.2 0.5 70
2018-05-07 01:00:00 13.5 6 Norte 20 Sur 0 934.3 1.1 71
2018-05-07 00:00:00 14.2 0 Calma 4 Norte 0 934.1 1.2 67
2018-05-06 23:00:00 15.7 0 Calma 5 Noroeste 0 933.7 1.2 63
2018-05-06 22:00:00 17.9 2 Norte 8 Sudeste 0 933.2 0.7 57
2018-05-06 21:00:00 22.1 4 Sudeste 12 Este 0 932.9 0.1 40
2018-05-06 20:00:00 23 8 Este 18 Norte 0 932.5 -0.5 35
2018-05-06 19:00:00 24 3 Noroeste 10 Nordeste 0 932.5 -1.4 31
2018-05-06 18:00:00 23.5 5 Este 19 Este 0 932.8 -1.5 33
2018-05-06 17:00:00 24.6 5 Norte 22 Este 0 933 -1.5 32
2018-05-06 16:00:00 24.2 6 Sudoeste 17 Sur 0 933.9 -1.1 34
2018-05-06 15:00:00 22.7 6 Este 17 Este 0 934.3 -1.2 39
2018-05-06 14:00:00 21.6 5 Sudeste 17 Este 0 934.5 -1.3 41
2018-05-06 13:00:00 20.1 5 Sudeste 19 Este 0 935 -0.9 48
2018-05-06 12:00:00 18 6 Nordeste 18 Este 0 935.5 -0.3 53
2018-05-06 11:00:00 15.8 8 Este 18 Este 0 935.8 0.2 59
2018-05-06 10:00:00 13.9 9 Nordeste 21 Nordeste 0 935.9 0.9 64
2018-05-06 09:00:00 12.5 9 Nordeste 17 Nordeste 0 935.8 0.9 70
2018-05-06 08:00:00 10.3 6 Norte 13 Nordeste 0 935.6 0.4 78
2018-05-06 07:00:00 8.8 5 Norte 14 Nordeste 0 935 -0.1 82
2018-05-06 06:00:00 9.6 6 Nordeste 19 Nordeste 0 934.9 -0.3 80
2018-05-06 05:00:00 9.9 8 Nordeste 16 Nordeste 0 935.2 -0.3 78
2018-05-06 04:00:00 10.6 6 Nordeste 16 Nordeste 0 935.1 -0.5 77
2018-05-06 03:00:00 11.4 7 Norte 19 Nordeste 0 935.2 -0.4 74
2018-05-06 02:00:00 12 7 Nordeste 20 Nordeste 0 935.5 0.1 72
2018-05-06 01:00:00 12.5 8 Nordeste 20 Nordeste 0 935.6 0.6 70
2018-05-06 00:00:00 13.1 7 Nordeste 19 Nordeste 0 935.6 1.3 67
2018-05-05 23:00:00 13.9 6 Este 26 Este 0 935.4 1.6 64
2018-05-05 22:00:00 15.7 17 Este 30 Nordeste 0 935 1.2 56
2018-05-05 21:00:00 17.9 13 Este 25 Este 0 934.3 0.5 48
2018-05-05 20:00:00 19.9 13 Este 24 Este 0 933.8 -0.1 41
2018-05-05 19:00:00 20.7 15 Este 29 Este 0 933.8 -0.6 38
2018-05-05 18:00:00 21.3 13 Este 31 Este 0 933.8 -0.7 38
2018-05-05 17:00:00 20.6 17 Este 41 Sudeste 0 933.9 -0.9 38
2018-05-05 16:00:00 20.3 17 Este 38 Este 0 934.4 -0.9 41
2018-05-05 15:00:00 19.5 16 Este 45 Este 0 934.5 -1.4 42
2018-05-05 14:00:00 18.5 14 Este 35 Este 0 934.8 -1.6 45
2018-05-05 13:00:00 16.9 16 Este 42 Este 0 935.3 -1.3 48
2018-05-05 12:00:00 15.1 14 Nordeste 35 Este 0 935.9 -0.6 50
2018-05-05 11:00:00 13.4 10 Nordeste 32 Nordeste 0 936.4 0 52
2018-05-05 10:00:00 10.4 13 Nordeste 23 Nordeste 0 936.6 0.5 58
2018-05-05 09:00:00 8.3 8 Norte 20 Norte 0 936.5 0.6 62
2018-05-05 08:00:00 5.3 6 Norte 12 Este 0 936.4 0.5 75
2018-05-05 07:00:00 4.4 6 Norte 16 Norte 0 936.1 0.1 77
2018-05-05 06:00:00 4.5 7 Norte 12 Este 0 935.9 -0.3 78
2018-05-05 05:00:00 5 4 Norte 12 Norte 0 935.9 -0.6 77
2018-05-05 04:00:00 5.9 8 Norte 14 Nordeste 0 936 -0.6 72
2018-05-05 03:00:00 6.4 10 Nordeste 19 Nordeste 0 936.2 -0.3 72
2018-05-05 02:00:00 7 9 Nordeste 18 Norte 0 936.5 0.2 70
2018-05-05 01:00:00 7.6 9 Nordeste 19 Nordeste 0 936.6 0.9 68
2018-05-05 00:00:00 8.2 8 Nordeste 30 Nordeste 0 936.5 1.5 68
2018-05-04 23:00:00 9.3 11 Este 30 Este 0 936.3 2 64
2018-05-04 22:00:00 10.5 12 Este 39 Este 0 935.7 1.5 60
2018-05-04 21:00:00 12.7 11 Este 35 Este 0 935 0.9 51
2018-05-04 20:00:00 14.6 17 Este 37 Este 0 934.3 -0.1 43
2018-05-04 19:00:00 15.8 19 Este 35 Este 0 934.2 -0.6 38
2018-05-04 18:00:00 16.1 18 Este 35 Este 0 934.1 -1.1 39
2018-05-04 17:00:00 16 19 Este 40 Este 0 934.4 -1.1 36
2018-05-04 16:00:00 15.8 17 Este 37 Nordeste 0 934.8 -0.9 38
2018-05-04 15:00:00 14.9 16 Este 35 Nordeste 0 935.2 -0.8 39
2018-05-04 14:00:00 13.9 18 Este 39 Este 0 935.5 -0.7 41
2018-05-04 13:00:00 12.8 19 Este 33 Nordeste 0 935.7 -0.7 43
2018-05-04 12:00:00 11.7 16 Este 34 Este 0 936 -0.3 46
2018-05-04 11:00:00 10 14 Este 37 Este 0 936.2 -0.1 50
2018-05-04 10:00:00 8.2 6 Nordeste 16 Nordeste 0 936.4 0.5 57
2018-05-04 09:00:00 5.6 5 Este 13 Norte 0 936.3 0.5 71
2018-05-04 08:00:00 3.3 4 Nordeste 13 Norte 0 936.3 0.3 76
2018-05-04 07:00:00 1.9 6 Norte 14 Norte 0 935.9 -0.4 82
2018-05-04 06:00:00 2.3 5 Norte 10 Nordeste 0 935.8 -1 80
2018-05-04 05:00:00 3.1 5 Norte 13 Nordeste 0 936 -1 77
2018-05-04 04:00:00 3.7 4 Nordeste 12 Este 0 936.3 -0.9 75
2018-05-04 03:00:00 4.1 3 Nordeste 14 Este 0 936.8 -0.1 75
2018-05-04 02:00:00 4.4 5 Nordeste 14 Este 0 937 0.1 73
2018-05-04 01:00:00 5.2 6 Este 22 Este 0 937.2 1.1 70
2018-05-04 00:00:00 6.4 9 Este 21 Este 0 936.9 1.7 65
2018-05-03 23:00:00 7.9 11 Este 23 Este 0 936.9 2.5 60
2018-05-03 22:00:00 9.1 6 Este 22 Este 0 936.1 1.8 60
2018-05-03 21:00:00 11 13 Este 30 Este 0 935.2 1.1 52
2018-05-03 20:00:00 14.8 13 Norte 35 Norte 0 934.4 0.1 36
2018-05-03 19:00:00 16 17 Nordeste 35 Nordeste 0 934.3 0 32
2018-05-03 18:00:00 17.2 14 Norte 32 Norte 0 934.1 -0.4 30
2018-05-03 17:00:00 17 15 Norte 35 Norte 0 934.3 -1 28
2018-05-03 16:00:00 16.7 13 Nordeste 35 Nordeste 0 934.3 -1.3 32
2018-05-03 15:00:00 15.2 11 Nordeste 32 Norte 0 934.5 -1.3 31
2018-05-03 14:00:00 14.3 12 Norte 28 Nordeste 0 935.3 -0.5 35
2018-05-03 13:00:00 14.4 12 Norte 27 Norte 0 935.6 -0.1 40
2018-05-03 12:00:00 13.4 14 Nordeste 33 Nordeste 0 935.8 0.4 41
2018-05-03 11:00:00 12.3 18 Nordeste 33 Nordeste 0 935.8 0.6 48
2018-05-03 10:00:00 11.3 14 Nordeste 32 Nordeste 0 935.7 1 56
2018-05-03 09:00:00 9.7 8 Nordeste 21 Este 0 935.4 0.9 74
2018-05-03 08:00:00 6.9 4 Norte 9 Nordeste 0 935.2 0.6 87
2018-05-03 07:00:00 5.3 3 Norte 9 Norte 0 934.7 0.1 90
2018-05-03 06:00:00 6.2 3 Noroeste 13 Norte 0 934.5 0 88
2018-05-03 05:00:00 6.5 4 Norte 10 Noroeste 0 934.6 -0.2 86
2018-05-03 04:00:00 7.7 3 Sudoeste 18 Noroeste 0 934.6 -0.2 83
2018-05-03 03:00:00 8.7 9 Noroeste 22 Noroeste 0 934.5 -0.1 80
2018-05-03 02:00:00 9.5 11 Noroeste 22 Noroeste 0 934.8 0.4 77
2018-05-03 01:00:00 10.4 12 Noroeste 26 Noroeste 0 934.8 0.9 73
2018-05-03 00:00:00 11.5 14 Noroeste 28 Noroeste 0 934.6 1.1 69
2018-05-02 23:00:00 11.9 13 Noroeste 28 Noroeste 0 934.4 1.4 67
2018-05-02 22:00:00 12.4 10 Noroeste 22 Noroeste 0 933.9 1.1 65
2018-05-02 21:00:00 14.1 12 Noroeste 23 Noroeste 0 933.5 0.8 57
2018-05-02 20:00:00 15.1 12 Noroeste 24 Noroeste 0 933 0.6 54
2018-05-02 19:00:00 15.9 8 Oeste 21 Noroeste 0 932.8 0.3 50
2018-05-02 18:00:00 14.7 5 Oeste 19 Noroeste 0 932.7 0.3 55
2018-05-02 17:00:00 15.6 9 Noroeste 20 Norte 0 932.4 0 50
2018-05-02 16:00:00 16.3 7 Oeste 18 Noroeste 0 932.5 0 44
2018-05-02 15:00:00 16 4 Noroeste 20 Oeste 0 932.4 -0.2 44
2018-05-02 14:00:00 15.6 10 Oeste 23 Sur 0 932.4 -0.2 43
2018-05-02 13:00:00 14.5 9 Oeste 23 Oeste 0 932.5 0.3 46
2018-05-02 12:00:00 13 7 Oeste 20 Oeste 0 932.6 0.6 48
2018-05-02 11:00:00 10.4 6 Oeste 14 Oeste 0 932.6 1.2 52
2018-05-02 10:00:00 9.3 9 Noroeste 18 Noroeste 0 932.2 1.2 48
2018-05-02 09:00:00 7.4 8 Oeste 19 Oeste 0 932 1 56
2018-05-02 08:00:00 6.4 5 Sudoeste 17 Oeste 0 931.4 0.2 53
2018-05-02 07:00:00 6.7 6 Sudoeste 17 Oeste 0 931 -0.1 50
2018-05-02 06:00:00 7 9 Sudoeste 23 Sudoeste 0 931 -0.3 51
2018-05-02 05:00:00 7.3 9 Sudoeste 20 Sudoeste 0 931.2 -0.2 56
2018-05-02 04:00:00 7.8 10 Sudoeste 20 Oeste 0 931.1 -0.4 55
2018-05-02 03:00:00 8.1 6 Sur 18 Oeste 0 931.3 -0.1 60
2018-05-02 02:00:00 8.6 7 Oeste 23 Oeste 0 931.4 0.3 57
2018-05-02 01:00:00 9.2 6 Oeste 18 Oeste 0 931.5 0.5 52
2018-05-02 00:00:00 10.1 8 Sudoeste 18 Sudoeste 0 931.4 0.6 47
2018-05-01 23:00:00 10.5 8 Sudoeste 17 Sudoeste 0 931.1 0.5 43
2018-05-01 22:00:00 11.2 9 Sudoeste 18 Sudoeste 0 931 0.1 42
2018-05-01 21:00:00 12.3 11 Sudoeste 28 Oeste 0 930.8 -0.6 37
2018-05-01 20:00:00 14.3 12 Sur 28 Sur 0 930.6 -1.2 31
2018-05-01 19:00:00 14.4 13 Sudoeste 30 Sudoeste 0 930.9 -1.8 31
2018-05-01 18:00:00 14.4 12 Sudoeste 26 Sur 0 931.4 -1.8 31
2018-05-01 17:00:00 14.7 11 Sudoeste 24 Sudoeste 0 931.8 -1.7 32
2018-05-01 16:00:00 13.9 10 Sur 23 Sudoeste 0 932.7 -1.5 35
2018-05-01 15:00:00 13.1 6 Sudoeste 21 Sudoeste 0 933.2 -1.4 34
2018-05-01 14:00:00 12 5 Sudeste 18 Sudeste 0 933.5 -1.2 39
2018-05-01 13:00:00 9.7 6 Oeste 19 Sudoeste 0 934.2 -0.2 49
2018-05-01 12:00:00 9.1 4 Sur 14 Sudoeste 0 934.6 0.5 52
2018-05-01 11:00:00 6.8 4 Nordeste 13 Nordeste 0 934.7 1 71
2018-05-01 10:00:00 5.5 6 Nordeste 13 Norte 0 934.4 1.1 73
2018-05-01 09:00:00 4 5 Norte 9 Norte 0 934.1 1 86
2018-05-01 08:00:00 2.2 2 Este 12 Norte 0 933.7 0.3 90
2018-05-01 07:00:00 2.4 3 Norte 5 Norte 0 933.3 -0.4 91
2018-05-01 06:00:00 1.6 3 Norte 7 Noroeste 0 933.1 -0.7 91
2018-05-01 05:00:00 1.6 3 Norte 13 Este 0 933.4 -0.7 88
2018-05-01 04:00:00 2.2 3 Norte 10 Norte 0 933.7 -0.4 85
2018-05-01 03:00:00 2.5 5 Norte 8 Norte 0 933.8 0.3 85
2018-05-01 02:00:00 3.1 3 Noroeste 13 Norte 0 934.1 0.7 85
2018-05-01 01:00:00 3.6 6 Norte 19 Norte 0 934.1 1.2 81
2018-05-01 00:00:00 5.5 9 Norte 17 Norte 0 933.5 1.3 75
2018-04-30 23:00:00 5.9 3 Nordeste 20 Noroeste 0 933.4 1.6 81
2018-04-30 22:00:00 6.4 7 Noroeste 17 Oeste 0 932.9 1.4 80
2018-04-30 21:00:00 7.2 7 Oeste 13 Oeste 0 932.2 1.1 76
2018-04-30 20:00:00 7.3 3 Norte 14 Sudoeste 0 931.8 0.6 75
2018-04-30 19:00:00 7 8 Sudoeste 19 Sudoeste 0 931.5 -0.1 78
2018-04-30 18:00:00 6.9 9 Sur 19 Sur 0 931.1 0 77
2018-04-30 17:00:00 6.6 8 Nordeste 34 Norte 0.6 931.2 -0.2 78
2018-04-30 16:00:00 8.6 10 Noroeste 35 Norte 0.4 931.6 -0.1 69
2018-04-30 15:00:00 10.5 9 Oeste 21 Sudoeste 0 931.1 -0.4 57
2018-04-30 14:00:00 8.7 9 Sudoeste 19 Oeste 0 931.4 0 59
2018-04-30 13:00:00 7.4 7 Oeste 19 Sudoeste 0 931.7 0.8 69
2018-04-30 12:00:00 6.8 7 Sudoeste 18 Oeste 0 931.5 1 66
2018-04-30 11:00:00 5.7 8 Oeste 23 Oeste 0 931.4 1 71
2018-04-30 10:00:00 5.1 10 Oeste 22 Sudoeste 0 930.9 0.8 73
2018-04-30 09:00:00 4 7 Sudoeste 14 Sudoeste 0 930.5 0.4 79
2018-04-30 08:00:00 2.3 6 Oeste 13 Oeste 0 930.4 0.4 85
2018-04-30 07:00:00 1.8 6 Oeste 16 Oeste 0 930.1 0 86
2018-04-30 06:00:00 2.2 7 Sudoeste 22 Sudoeste 0 930.1 -0.1 85
2018-04-30 05:00:00 2.6 10 Sudoeste 22 Sudoeste 0 930 -0.7 82
2018-04-30 04:00:00 2.7 10 Sudoeste 20 Sudoeste 0 930.1 -0.2 81
2018-04-30 03:00:00 2.9 11 Sudoeste 25 Sudoeste 0 930.2 0 83
2018-04-30 02:00:00 3.4 6 Sudoeste 17 Oeste 0 930.7 1 78
2018-04-30 01:00:00 3.8 7 Sudoeste 22 Sudoeste 0 930.3 1.3 75
2018-04-30 00:00:00 4.2 10 Sudoeste 29 Oeste 0 930.2 2.1 72
2018-04-29 23:00:00 5 12 Sudoeste 28 Oeste 0 929.7 2.5 67
2018-04-29 22:00:00 5.2 8 Oeste 38 Sudoeste 0 929 2.5 69
2018-04-29 21:00:00 7.3 14 Oeste 35 Oeste 0 928.1 2.1 60
2018-04-29 20:00:00 8.6 14 Oeste 54 Oeste 0 927.2 1.6 57
2018-04-29 19:00:00 8.8 16 Sudoeste 45 Sudoeste 0 926.5 0.9 61
2018-04-29 18:00:00 10.7 17 Sudoeste 48 Oeste 0 926 0.9 49
2018-04-29 17:00:00 11.4 23 Sudoeste 52 Oeste 0 925.6 0.8 44
2018-04-29 16:00:00 11.2 21 Oeste 63 Sudoeste 0 925.6 0.6 44
2018-04-29 15:00:00 12.1 22 Sudoeste 48 Sudoeste 0 925.1 0 48
2018-04-29 14:00:00 11.7 19 Sudoeste 48 Sudoeste 0 924.8 0 49
2018-04-29 13:00:00 10.1 14 Oeste 37 Oeste 0 925 0.7 53
2018-04-29 12:00:00 8.1 13 Oeste 32 Oeste 0 925.1 1 67
2018-04-29 11:00:00 7.7 13 Sudoeste 30 Sudoeste 0 924.8 1.3 73
2018-04-29 10:00:00 7 6 Sudoeste 15 Sudoeste 0 924.3 1.2 83
2018-04-29 09:00:00 5.8 3 Oeste 14 Sudoeste 1 924.1 1.2 86
2018-04-29 08:00:00 6 6 Oeste 12 Oeste 0 923.5 0.5 80
2018-04-29 07:00:00 5.8 5 Oeste 11 Oeste 0 923.1 -0.3 78
2018-04-29 06:00:00 5.5 2 Norte 10 Oeste 0 922.9 -1 81
2018-04-29 05:00:00 5.4 3 Oeste 5 Oeste 0 923 -1.5 80
2018-04-29 04:00:00 5.3 3 Sudoeste 8 Norte 0 923.4 -1.4 79
2018-04-29 03:00:00 4.8 3 Noroeste 7 Norte 0 923.9 -0.9 82
2018-04-29 02:00:00 4.7 2 Noroeste 6 Sur 0 924.5 -0.3 77
2018-04-29 01:00:00 6.2 5 Sur 11 Sur 0 924.8 0.6 67
2018-04-29 00:00:00 6.6 5 Norte 13 Oeste 0 924.8 0.7 65
2018-04-28 23:00:00 9.2 6 Sudoeste 17 Oeste 0 924.8 0.6 50
2018-04-28 22:00:00 10.3 4 Oeste 17 Oeste 0 924.2 -0.2 52
2018-04-28 21:00:00 11.7 3 Norte 15 Norte 0 924.1 -0.3 53
2018-04-28 20:00:00 12 6 Norte 27 Sudoeste 0 924.2 -0.5 54
2018-04-28 19:00:00 14.5 14 Sudoeste 38 Sudoeste 0 924.4 -1 29
2018-04-28 18:00:00 14.1 17 Sudoeste 39 Sudoeste 0 924.4 -1.6 32
2018-04-28 17:00:00 14.8 18 Sudoeste 33 Sudoeste 0.2 924.7 -1.9 34
2018-04-28 16:00:00 13.5 9 Sur 21 Sur 0 925.4 -1.5 50
2018-04-28 15:00:00 10.6 4 Sur 28 Oeste 0.4 926 -1.4 63
2018-04-28 14:00:00 11.3 9 Sudoeste 30 Oeste 0 926.6 -0.8 66
2018-04-28 13:00:00 12.4 6 Nordeste 19 Nordeste 0 926.9 -0.7 55
2018-04-28 12:00:00 9.9 4 Norte 13 Nordeste 0 927.4 -0.4 67
2018-04-28 11:00:00 9 5 Nordeste 14 Este 0 927.4 -0.3 71
2018-04-28 10:00:00 8.2 10 Este 16 Este 0 927.6 -0.2 74
2018-04-28 09:00:00 8 10 Nordeste 22 Nordeste 0 927.8 0 74
2018-04-28 08:00:00 7.6 6 Nordeste 14 Nordeste 0 927.7 -0.5 77
2018-04-28 07:00:00 7.5 7 Nordeste 20 Nordeste 0 927.8 -0.8 77
2018-04-28 06:00:00 7.5 9 Nordeste 24 Este 0 927.8 -1.5 77
2018-04-28 05:00:00 7.6 11 Nordeste 22 Nordeste 0 928.2 -1.6 78
2018-04-28 04:00:00 7.7 10 Nordeste 26 Nordeste 0 928.6 -1.3 78
2018-04-28 03:00:00 8.1 8 Nordeste 20 Nordeste 0 929.3 -0.4 78
2018-04-28 02:00:00 8.6 8 Este 21 Norte 0 929.8 -0.1 77
2018-04-28 01:00:00 9.5 9 Norte 24 Noroeste 0 929.9 0.2 58
2018-04-28 00:00:00 10.6 15 Noroeste 29 Noroeste 0 929.7 0.5 49